Mc Minnville Municipal Airport Mc Minnville US
ICAO: KMMV
IATA: MMV
Category: Medium
Scheduled Services: No

Elevation: 163 ft
TransAlt. 18000 ft.

Airport Communications:
PORTLAND APP/DEP:126
ASOS:135.675
PORTLAND CLNC DEL:118.35
SEATTLE CNTR:125.8
RDO:122.3
CTAF/UNICOM:123

KMMV Zoom In..

If you have problems with the map follow the link
https://www.worldairports.se/pages/airport.php?
ICAO=KMMV

Runways:

(A) RW 04 length 5420 ft width 150 ft
---- / hdg 38

(B) RW 17 length 4340 ft width 75 ft
---- / hdg 167

(C) RW 22 length 5420 ft width 150 ft
ILS 110.90 / hdg 218

(D) RW 35 length 4340 ft width 75 ft
---- / hdg 347

Location; KMMV
Day. 07 / Time. 09.53 Zulu
* Altimeter: 29.77
* Temperature: 06° c. 42.8°f.
* Wind from: 000° Speed 00 kn.
Dewpoint: 06° c.
Visibility: 2 Statute Miles.
Clouds: Overcast 5500 ft.
Conditions: Light Rain.Conditions: Mist.

KMMV 070953Z AUTO 00000KT 2SM -RA BR OVC055 06/06 A2977 RMK AO2 SLP080 P0004 T00610056


Wind - Calm.

 
 
jpsmedia worldairports.se 2019   terms of use